Time;durP1;ratioP1;P1;durP2;ratioP2;P2;SDS_P1;SDS_P2;PMS_P1;PMS_P2;Temp;Humidity;BMP_temperature;BMP_pressure;BME280_temperature;BME280_humidity;BME280_pressure;Samples;Min_cycle;Max_cycle;Signal;HPM_P1;HPM_P2
2023/05/30 00:00:23;;;;;;;12.98;12.27;;;;;;;;;;5035828;28;20025;-66
2023/05/30 00:02:49;;;;;;;12.77;12.18;;;;;;;;;;5037828;28;20530;-67
2023/05/30 00:05:14;;;;;;;13.15;12.45;;;;;;;;;;5038812;28;20048;-66
2023/05/30 00:07:40;;;;;;;12.50;11.90;;;;;;;;;;5034727;28;20021;-66
2023/05/30 00:10:06;;;;;;;12.63;12.02;;;;;;;;;;5035613;28;20020;-65
2023/05/30 00:12:31;;;;;;;12.63;12.02;;;;;;;;;;5041112;28;20476;-66
2023/05/30 00:14:59;;;;;;;13.80;13.10;;;;;;;;;;5034639;28;20021;-66
2023/05/30 00:17:25;;;;;;;12.63;12.02;;;;;;;;;;5038525;28;20033;-66
2023/05/30 00:19:52;;;;;;;12.40;11.80;;;;;;;;;;5031223;28;20026;-66
2023/05/30 00:22:19;;;;;;;13.00;12.30;;;;;;;;;;5033981;28;20547;-66
2023/05/30 00:24:45;;;;;;;12.30;11.70;;;;;;;;;;5022730;28;20026;-66
2023/05/30 00:27:10;;;;;;;13.00;12.30;;;;;;;;;;5038942;28;20155;-65
2023/05/30 00:29:36;;;;;;;12.63;12.02;;;;;;;;;;5038573;28;20025;-65
2023/05/30 00:32:01;;;;;;;12.30;11.70;;;;;;;;;;5049392;28;20358;-65
2023/05/30 00:34:26;;;;;;;12.45;11.85;;;;;;;;;;5049381;28;20052;-65
2023/05/30 00:36:51;;;;;;;13.13;12.43;;;;;;;;;;5038075;28;20048;-67
2023/05/30 00:39:17;;;;;;;13.30;12.60;;;;;;;;;;5038833;28;20025;-65
2023/05/30 00:41:43;;;;;;;12.52;11.93;;;;;;;;;;5047243;28;20013;-65
2023/05/30 00:44:08;;;;;;;13.52;12.82;;;;;;;;;;5034608;28;20057;-65
2023/05/30 00:46:34;;;;;;;12.30;11.70;;;;;;;;;;5038570;28;20049;-66
2023/05/30 00:48:59;;;;;;;12.63;12.02;;;;;;;;;;5042373;28;20025;-66
2023/05/30 00:51:26;;;;;;;12.85;12.25;;;;;;;;;;5045050;28;20473;-66
2023/05/30 00:53:52;;;;;;;12.38;11.77;;;;;;;;;;5029634;28;20025;-66
2023/05/30 00:56:18;;;;;;;13.30;12.60;;;;;;;;;;5035486;28;20067;-65
2023/05/30 00:58:43;;;;;;;13.32;12.63;;;;;;;;;;5035255;28;20079;-65
2023/05/30 01:01:09;;;;;;;13.10;12.40;;;;;;;;;;5039058;28;20033;-66
2023/05/30 01:03:34;;;;;;;13.00;12.30;;;;;;;;;;5032825;28;20033;-65
2023/05/30 01:06:06;;;;;;;13.18;12.48;;;;;;;;;;5035826;28;20042;-65
2023/05/30 01:08:32;;;;;;;12.85;12.20;;;;;;;;;;5033455;28;20025;-65
2023/05/30 01:11:21;;;;;;;12.90;12.23;;;;;;;;;;5032598;28;21157;-64
2023/05/30 01:13:55;;;;;;;12.50;11.90;;;;;;;;;;5031283;28;20071;-65
2023/05/30 01:16:20;;;;;;;;;;;;;;;;;;5035891;28;20246;-65
2023/05/30 01:19:04;;;;;;;12.50;11.90;;;;;;;;;;5034061;28;19912;-65
2023/05/30 01:21:32;;;;;;;12.15;11.55;;;;;;;;;;5036534;28;20028;-65
2023/05/30 01:24:15;;;;;;;12.75;12.07;;;;;;;;;;5047005;28;20044;-65
2023/05/30 01:26:53;;;;;;;12.40;11.80;;;;;;;;;;5037782;28;20021;-66
2023/05/30 01:29:20;;;;;;;12.82;12.13;;;;;;;;;;5026836;28;20021;-66
2023/05/30 01:31:46;;;;;;;12.00;11.40;;;;;;;;;;5034146;28;20143;-67
2023/05/30 01:34:12;;;;;;;13.10;12.40;;;;;;;;;;5044542;28;20527;-66
2023/05/30 01:36:38;;;;;;;12.05;11.45;;;;;;;;;;5047936;28;20029;-68
2023/05/30 01:39:03;;;;;;;12.55;11.95;;;;;;;;;;5042079;28;20025;-67
2023/05/30 01:41:44;;;;;;;13.30;12.60;;;;;;;;;;5032047;28;20029;-66
2023/05/30 01:44:18;;;;;;;13.43;12.73;;;;;;;;;;5037784;28;20021;-66
2023/05/30 01:46:47;;;;;;;13.95;13.18;;;;;;;;;;5036468;28;20393;-66
2023/05/30 01:49:18;;;;;;;12.63;12.02;;;;;;;;;;5048436;28;20029;-66
2023/05/30 01:51:47;;;;;;;13.05;12.35;;;;;;;;;;5028165;28;20017;-66
2023/05/30 01:54:14;;;;;;;13.38;12.68;;;;;;;;;;5047723;28;20033;-66
2023/05/30 01:56:42;;;;;;;12.70;12.10;;;;;;;;;;5037550;28;20025;-67
2023/05/30 01:59:07;;;;;;;13.70;12.95;;;;;;;;;;5033534;28;20389;-67
2023/05/30 02:01:33;;;;;;;12.57;11.98;;;;;;;;;;5030177;28;20021;-66
2023/05/30 02:03:58;;;;;;;12.57;11.98;;;;;;;;;;5032837;28;20358;-67
2023/05/30 02:06:24;;;;;;;12.50;11.90;;;;;;;;;;5038208;28;20053;-66
2023/05/30 02:08:49;;;;;;;12.15;11.55;;;;;;;;;;5037357;28;20022;-66
2023/05/30 02:11:15;;;;;;;12.90;12.23;;;;;;;;;;5033351;28;20531;-65
2023/05/30 02:13:40;;;;;;;12.52;11.93;;;;;;;;;;5036631;28;20025;-66
2023/05/30 02:16:06;;;;;;;13.48;12.77;;;;;;;;;;5034044;28;20052;-66
2023/05/30 02:18:32;;;;;;;13.05;12.35;;;;;;;;;;5031624;28;20017;-66
2023/05/30 02:20:57;;;;;;;12.60;12.00;;;;;;;;;;5038374;28;20017;-67
2023/05/30 02:23:24;;;;;;;13.25;12.55;;;;;;;;;;5034484;28;20027;-66
2023/05/30 02:25:49;;;;;;;12.50;11.90;;;;;;;;;;5032691;28;20051;-66
2023/05/30 02:28:14;;;;;;;12.45;11.85;;;;;;;;;;5039521;28;20045;-66
2023/05/30 02:30:40;;;;;;;13.13;12.43;;;;;;;;;;5039559;28;20013;-66
2023/05/30 02:33:05;;;;;;;12.90;12.20;;;;;;;;;;5038495;28;20031;-66
2023/05/30 02:35:31;;;;;;;12.65;12.00;;;;;;;;;;5030860;28;20539;-66
2023/05/30 02:37:56;;;;;;;12.48;11.88;;;;;;;;;;5030197;28;20495;-66
2023/05/30 02:40:21;;;;;;;12.82;12.13;;;;;;;;;;5030778;28;20032;-65
2023/05/30 02:42:47;;;;;;;13.00;12.30;;;;;;;;;;5034623;28;20025;-66
2023/05/30 02:45:12;;;;;;;13.10;12.40;;;;;;;;;;5040277;28;20021;-66
2023/05/30 02:47:39;;;;;;;12.80;12.10;;;;;;;;;;5036767;28;20017;-66
2023/05/30 02:50:05;;;;;;;12.30;11.70;;;;;;;;;;5033172;28;20033;-66
2023/05/30 02:52:30;;;;;;;12.60;12.00;;;;;;;;;;5038285;28;20075;-67
2023/05/30 02:54:55;;;;;;;12.15;11.55;;;;;;;;;;5044478;28;20150;-66
2023/05/30 02:57:21;;;;;;;12.40;11.80;;;;;;;;;;5039885;28;20030;-66
2023/05/30 02:59:46;;;;;;;13.35;12.65;;;;;;;;;;5033140;28;20021;-66
2023/05/30 03:02:12;;;;;;;12.52;11.93;;;;;;;;;;5040550;28;20024;-66
2023/05/30 03:04:37;;;;;;;13.25;12.55;;;;;;;;;;5033341;28;20017;-67
2023/05/30 03:07:02;;;;;;;13.95;13.15;;;;;;;;;;5020527;28;20042;-67
2023/05/30 03:09:28;;;;;;;13.20;12.50;;;;;;;;;;5033145;28;20528;-66
2023/05/30 03:11:53;;;;;;;12.35;11.75;;;;;;;;;;5035854;28;20021;-67
2023/05/30 03:14:18;;;;;;;13.52;12.75;;;;;;;;;;5030743;28;20112;-66
2023/05/30 03:16:44;;;;;;;13.35;12.65;;;;;;;;;;5038635;28;20025;-66
2023/05/30 03:19:09;;;;;;;13.00;12.32;;;;;;;;;;5037950;28;20075;-66
2023/05/30 03:21:36;;;;;;;12.80;12.15;;;;;;;;;;5025546;28;20504;-67
2023/05/30 03:24:02;;;;;;;12.88;12.20;;;;;;;;;;5031502;28;20465;-67
2023/05/30 03:26:27;;;;;;;12.35;11.75;;;;;;;;;;5032402;28;20083;-66
2023/05/30 03:28:53;;;;;;;12.93;12.32;;;;;;;;;;5042421;28;20187;-65
2023/05/30 03:31:18;;;;;;;12.98;12.35;;;;;;;;;;5044131;28;20024;-66
2023/05/30 03:33:44;;;;;;;12.15;11.55;;;;;;;;;;5041066;28;20080;-67
2023/05/30 03:36:12;;;;;;;13.15;12.52;;;;;;;;;;5043865;28;20484;-67
2023/05/30 03:38:38;;;;;;;12.88;12.27;;;;;;;;;;5038084;28;20026;-66
2023/05/30 03:41:04;;;;;;;12.20;11.60;;;;;;;;;;5038769;28;20071;-67
2023/05/30 03:43:29;;;;;;;13.50;12.80;;;;;;;;;;5036595;28;20151;-68
2023/05/30 03:45:55;;;;;;;12.73;12.13;;;;;;;;;;5033185;28;20021;-65
2023/05/30 03:48:20;;;;;;;12.75;12.15;;;;;;;;;;5043069;28;20014;-64
2023/05/30 03:50:46;;;;;;;13.65;12.95;;;;;;;;;;5042916;28;20472;-64
2023/05/30 03:53:12;;;;;;;12.23;11.63;;;;;;;;;;5050149;28;20059;-65
2023/05/30 03:55:37;;;;;;;12.85;12.25;;;;;;;;;;5042996;28;20094;-64
2023/05/30 03:58:02;;;;;;;12.88;12.27;;;;;;;;;;5049185;28;20032;-65
2023/05/30 04:00:28;;;;;;;12.75;12.15;;;;;;;;;;5037686;28;20028;-64
2023/05/30 04:02:53;;;;;;;12.75;12.15;;;;;;;;;;5035599;28;20069;-65
2023/05/30 04:05:19;;;;;;;13.57;12.98;;;;;;;;;;5033405;28;20052;-64
2023/05/30 04:07:44;;;;;;;13.38;12.77;;;;;;;;;;5029398;28;20025;-64
2023/05/30 04:10:10;;;;;;;13.23;12.63;;;;;;;;;;5034014;28;20018;-65
2023/05/30 04:12:35;;;;;;;12.95;12.35;;;;;;;;;;5035502;28;20037;-64
2023/05/30 04:15:00;;;;;;;12.70;12.10;;;;;;;;;;5038950;28;20125;-64
2023/05/30 04:17:26;;;;;;;13.10;12.50;;;;;;;;;;5041050;28;20044;-65
2023/05/30 04:19:52;;;;;;;12.57;11.97;;;;;;;;;;5036330;28;20247;-65
2023/05/30 04:22:17;;;;;;;12.65;12.05;;;;;;;;;;5038076;28;20254;-65
2023/05/30 04:24:43;;;;;;;11.98;11.48;;;;;;;;;;5033449;28;20025;-66
2023/05/30 04:27:09;;;;;;;12.10;11.60;;;;;;;;;;5028201;28;20111;-66
2023/05/30 04:29:34;;;;;;;12.18;11.68;;;;;;;;;;5038105;28;20022;-65
2023/05/30 04:32:00;;;;;;;12.05;11.55;;;;;;;;;;5034871;28;20022;-65
2023/05/30 04:34:25;;;;;;;12.10;11.60;;;;;;;;;;5037595;28;20055;-65
2023/05/30 04:36:53;;;;;;;12.40;11.80;;;;;;;;;;5034715;28;20116;-64
2023/05/30 04:39:19;;;;;;;12.13;11.60;;;;;;;;;;5028790;28;20022;-65
2023/05/30 04:41:44;;;;;;;12.40;11.80;;;;;;;;;;5036364;28;20029;-65
2023/05/30 04:44:09;;;;;;;11.75;11.25;;;;;;;;;;5030744;28;20563;-64
2023/05/30 04:46:36;;;;;;;12.18;11.60;;;;;;;;;;5031707;28;20017;-65
2023/05/30 04:49:01;;;;;;;12.40;11.80;;;;;;;;;;5027430;28;20363;-66
2023/05/30 04:51:27;;;;;;;13.13;12.48;;;;;;;;;;5024421;28;20028;-65
2023/05/30 04:53:53;;;;;;;12.55;11.95;;;;;;;;;;5032483;28;20022;-65
2023/05/30 04:56:21;;;;;;;13.10;12.50;;;;;;;;;;5035344;28;20026;-65
2023/05/30 04:58:48;;;;;;;12.35;11.75;;;;;;;;;;5033075;28;20033;-64
2023/05/30 05:01:13;;;;;;;12.40;11.80;;;;;;;;;;5036725;28;20051;-65
2023/05/30 05:03:40;;;;;;;13.02;12.43;;;;;;;;;;5038740;28;20497;-65
2023/05/30 05:06:08;;;;;;;13.45;12.85;;;;;;;;;;5037543;28;21290;-65
2023/05/30 05:08:35;;;;;;;12.90;12.30;;;;;;;;;;5028330;28;20079;-65
2023/05/30 05:11:01;;;;;;;12.40;11.80;;;;;;;;;;5048370;28;20021;-66
2023/05/30 05:13:26;;;;;;;12.38;11.77;;;;;;;;;;5045017;28;20464;-65
2023/05/30 05:15:52;;;;;;;12.30;11.70;;;;;;;;;;5042208;28;20028;-65
2023/05/30 05:18:17;;;;;;;12.10;11.60;;;;;;;;;;5041664;28;20025;-66
2023/05/30 05:20:43;;;;;;;11.68;11.18;;;;;;;;;;5043612;28;20053;-65
2023/05/30 05:23:08;;;;;;;12.07;11.57;;;;;;;;;;5035847;28;20036;-65
2023/05/30 05:25:33;;;;;;;12.82;12.23;;;;;;;;;;5043375;28;20487;-64
2023/05/30 05:27:59;;;;;;;12.32;11.75;;;;;;;;;;5040411;28;20025;-65
2023/05/30 05:30:24;;;;;;;11.82;11.32;;;;;;;;;;5044728;28;20377;-65
2023/05/30 05:32:50;;;;;;;12.33;11.73;;;;;;;;;;5035613;28;20056;-65
2023/05/30 05:35:15;;;;;;;12.77;12.18;;;;;;;;;;5042847;28;20322;-65
2023/05/30 05:37:40;;;;;;;12.33;11.77;;;;;;;;;;5042142;28;20016;-67
2023/05/30 05:40:07;;;;;;;13.07;12.47;;;;;;;;;;5038348;28;20279;-65
2023/05/30 05:42:33;;;;;;;12.50;11.90;;;;;;;;;;5037302;28;20808;-65
2023/05/30 05:44:59;;;;;;;12.50;11.90;;;;;;;;;;5042058;28;20061;-65
2023/05/30 05:47:24;;;;;;;12.02;11.52;;;;;;;;;;5040690;28;20430;-64
2023/05/30 05:49:51;;;;;;;11.98;11.48;;;;;;;;;;5035946;28;20025;-65
2023/05/30 05:52:16;;;;;;;12.30;11.80;;;;;;;;;;5035108;28;20044;-64
2023/05/30 05:54:41;;;;;;;12.75;12.15;;;;;;;;;;5035749;28;20480;-64
2023/05/30 05:57:07;;;;;;;12.60;12.00;;;;;;;;;;5029254;28;20041;-65
2023/05/30 05:59:32;;;;;;;12.70;12.10;;;;;;;;;;5024926;28;20116;-64
2023/05/30 06:01:58;;;;;;;12.43;11.87;;;;;;;;;;5033941;28;20017;-65
2023/05/30 06:04:23;;;;;;;12.40;11.90;;;;;;;;;;5033692;28;21876;-64
2023/05/30 06:06:49;;;;;;;11.87;11.37;;;;;;;;;;5028115;28;20072;-64
2023/05/30 06:09:15;;;;;;;12.63;12.02;;;;;;;;;;5033785;28;20290;-64
2023/05/30 06:11:40;;;;;;;12.10;11.60;;;;;;;;;;5038307;28;20071;-65
2023/05/30 06:14:05;;;;;;;12.10;11.60;;;;;;;;;;5040105;28;20036;-65
2023/05/30 06:16:31;;;;;;;11.80;11.30;;;;;;;;;;5030213;28;20365;-65
2023/05/30 06:18:57;;;;;;;12.05;11.55;;;;;;;;;;5032540;28;20028;-65
2023/05/30 06:21:22;;;;;;;11.73;11.23;;;;;;;;;;5036921;28;20036;-65
2023/05/30 06:23:47;;;;;;;12.00;11.50;;;;;;;;;;5039820;28;20108;-64
2023/05/30 06:26:13;;;;;;;12.00;11.50;;;;;;;;;;5043043;28;20018;-64
2023/05/30 06:28:38;;;;;;;12.10;11.60;;;;;;;;;;5038341;28;20032;-65
2023/05/30 06:31:03;;;;;;;12.20;11.70;;;;;;;;;;5035785;28;20456;-65
2023/05/30 06:33:29;;;;;;;12.18;11.68;;;;;;;;;;5035272;28;20384;-65
2023/05/30 06:35:54;;;;;;;11.80;11.30;;;;;;;;;;5044024;28;20392;-65
2023/05/30 06:38:20;;;;;;;12.05;11.55;;;;;;;;;;5038680;28;20246;-64
2023/05/30 06:40:45;;;;;;;12.15;11.65;;;;;;;;;;5036139;28;20025;-65
2023/05/30 06:43:10;;;;;;;12.60;12.00;;;;;;;;;;5029229;28;20029;-63
2023/05/30 06:45:36;;;;;;;11.90;11.40;;;;;;;;;;5026642;28;20033;-64
2023/05/30 06:48:01;;;;;;;12.35;11.82;;;;;;;;;;5023117;28;20101;-66
2023/05/30 06:50:27;;;;;;;12.10;11.60;;;;;;;;;;5032756;28;20056;-68
2023/05/30 06:52:52;;;;;;;12.18;11.68;;;;;;;;;;5025292;28;20689;-67
2023/05/30 06:55:17;;;;;;;12.37;11.87;;;;;;;;;;5026583;28;20028;-66
2023/05/30 06:57:43;;;;;;;12.30;11.80;;;;;;;;;;5030181;28;20099;-68
2023/05/30 07:00:09;;;;;;;12.27;11.77;;;;;;;;;;5023522;28;20738;-67
2023/05/30 07:02:35;;;;;;;12.60;12.00;;;;;;;;;;5030293;28;20028;-66
2023/05/30 07:05:00;;;;;;;13.00;12.40;;;;;;;;;;5027429;28;20696;-66
2023/05/30 07:07:25;;;;;;;12.20;11.70;;;;;;;;;;5029904;28;20036;-66
2023/05/30 07:09:51;;;;;;;12.52;11.95;;;;;;;;;;5036994;28;20282;-68
2023/05/30 07:12:17;;;;;;;12.30;11.80;;;;;;;;;;5022215;28;20695;-69
2023/05/30 07:14:42;;;;;;;12.23;11.73;;;;;;;;;;5031689;28;20201;-69
2023/05/30 07:17:08;;;;;;;12.33;11.83;;;;;;;;;;5033976;28;20356;-67
2023/05/30 07:19:33;;;;;;;11.98;11.48;;;;;;;;;;5028969;28;20420;-67
2023/05/30 07:21:58;;;;;;;12.70;12.10;;;;;;;;;;5035884;28;20440;-68
2023/05/30 07:24:24;;;;;;;12.53;11.93;;;;;;;;;;5029549;28;20480;-66
2023/05/30 07:26:50;;;;;;;12.10;11.60;;;;;;;;;;5026231;28;20267;-66
2023/05/30 07:29:15;;;;;;;12.68;12.07;;;;;;;;;;5019446;28;20271;-67
2023/05/30 07:31:41;;;;;;;12.50;11.90;;;;;;;;;;5023123;28;20022;-68
2023/05/30 07:34:06;;;;;;;12.63;12.02;;;;;;;;;;5024026;28;20104;-67
2023/05/30 07:36:32;;;;;;;13.37;12.77;;;;;;;;;;5029048;28;20052;-66
2023/05/30 07:38:57;;;;;;;13.40;12.80;;;;;;;;;;5027625;28;20278;-68
2023/05/30 07:41:22;;;;;;;13.07;12.48;;;;;;;;;;5026672;28;20036;-68
2023/05/30 07:43:48;;;;;;;13.13;12.53;;;;;;;;;;5027033;28;20033;-70
2023/05/30 07:46:13;;;;;;;13.13;12.52;;;;;;;;;;5024240;28;20294;-71
2023/05/30 07:48:40;;;;;;;13.02;12.43;;;;;;;;;;5027306;28;20036;-64
2023/05/30 07:51:06;;;;;;;13.40;12.80;;;;;;;;;;5017600;28;20104;-67
2023/05/30 07:53:31;;;;;;;14.23;13.52;;;;;;;;;;5022853;28;20112;-66
2023/05/30 07:55:56;;;;;;;14.33;13.63;;;;;;;;;;5014897;28;20056;-65
2023/05/30 07:58:22;;;;;;;12.83;12.23;;;;;;;;;;5017727;28;20308;-66
2023/05/30 08:00:47;;;;;;;13.88;13.18;;;;;;;;;;5019532;28;20296;-68
2023/05/30 08:03:13;;;;;;;14.47;13.77;;;;;;;;;;5018497;28;20780;-67
2023/05/30 08:05:38;;;;;;;13.05;12.45;;;;;;;;;;5018169;28;20346;-68
2023/05/30 08:08:06;;;;;;;14.60;13.90;;;;;;;;;;5022768;28;20021;-69
2023/05/30 08:10:31;;;;;;;13.68;12.98;;;;;;;;;;5022681;28;20281;-69
2023/05/30 08:12:57;;;;;;;13.55;12.88;;;;;;;;;;5018214;28;20508;-66
2023/05/30 08:15:22;;;;;;;13.13;12.52;;;;;;;;;;5017298;28;20479;-71
2023/05/30 08:17:47;;;;;;;13.17;12.57;;;;;;;;;;5020710;28;20018;-67
2023/05/30 08:20:12;;;;;;;13.63;12.95;;;;;;;;;;5022271;28;20713;-69
2023/05/30 08:22:38;;;;;;;13.50;12.88;;;;;;;;;;5020831;28;20024;-67
2023/05/30 08:25:03;;;;;;;13.27;12.67;;;;;;;;;;5025094;28;20425;-70
2023/05/30 08:27:28;;;;;;;13.88;13.18;;;;;;;;;;5018053;28;20041;-69
2023/05/30 08:29:54;;;;;;;13.07;12.47;;;;;;;;;;5021516;28;20021;-70
2023/05/30 08:32:19;;;;;;;12.98;12.38;;;;;;;;;;5027283;28;20617;-68
2023/05/30 08:34:48;;;;;;;12.47;11.87;;;;;;;;;;5022017;28;20029;-70
2023/05/30 08:37:13;;;;;;;13.25;12.65;;;;;;;;;;5025188;28;20271;-65
2023/05/30 08:39:38;;;;;;;13.32;12.73;;;;;;;;;;5030947;28;20032;-67
2023/05/30 08:42:04;;;;;;;13.20;12.60;;;;;;;;;;5036246;28;20023;-68
2023/05/30 08:44:30;;;;;;;12.95;12.35;;;;;;;;;;5031218;28;20028;-68
2023/05/30 08:46:59;;;;;;;12.82;12.23;;;;;;;;;;5031098;28;20484;-67
2023/05/30 08:49:24;;;;;;;12.65;12.05;;;;;;;;;;5029272;28;20033;-69
2023/05/30 08:51:52;;;;;;;13.35;12.75;;;;;;;;;;5025736;28;20469;-69
2023/05/30 08:54:21;;;;;;;13.50;12.88;;;;;;;;;;5022936;28;20071;-66
2023/05/30 08:56:47;;;;;;;13.38;12.73;;;;;;;;;;5026539;28;20038;-66
2023/05/30 08:59:15;;;;;;;13.55;12.85;;;;;;;;;;5022222;28;20029;-69
2023/05/30 09:01:41;;;;;;;12.65;12.05;;;;;;;;;;5026685;28;20033;-68
2023/05/30 09:04:07;;;;;;;12.18;11.60;;;;;;;;;;5032292;28;20362;-67
2023/05/30 09:06:34;;;;;;;12.98;12.38;;;;;;;;;;5021251;28;20033;-66
2023/05/30 09:09:00;;;;;;;12.70;12.10;;;;;;;;;;5026729;28;20053;-67
2023/05/30 09:11:26;;;;;;;12.75;12.15;;;;;;;;;;5022877;28;20469;-67
2023/05/30 09:13:52;;;;;;;13.15;12.55;;;;;;;;;;5028697;28;20048;-69
2023/05/30 09:16:18;;;;;;;13.60;12.90;;;;;;;;;;5031218;28;20136;-67
2023/05/30 09:18:43;;;;;;;13.25;12.65;;;;;;;;;;5031500;28;20041;-67
2023/05/30 09:21:09;;;;;;;13.88;13.18;;;;;;;;;;5028442;28;20030;-68
2023/05/30 09:23:36;;;;;;;14.02;13.32;;;;;;;;;;5024528;28;20485;-68
2023/05/30 09:26:04;;;;;;;12.85;12.25;;;;;;;;;;5027997;28;20453;-70
2023/05/30 09:28:31;;;;;;;12.73;12.13;;;;;;;;;;5025206;28;20596;-68
2023/05/30 09:30:58;;;;;;;13.23;12.63;;;;;;;;;;5022437;28;20111;-65
2023/05/30 09:33:23;;;;;;;12.88;12.27;;;;;;;;;;5029800;28;20831;-69
2023/05/30 09:35:52;;;;;;;12.90;12.30;;;;;;;;;;5027393;28;20036;-67
2023/05/30 09:38:20;;;;;;;12.70;12.10;;;;;;;;;;5030587;28;20101;-69
2023/05/30 09:40:48;;;;;;;11.98;11.48;;;;;;;;;;5035613;28;20033;-66
2023/05/30 09:43:13;;;;;;;12.98;12.38;;;;;;;;;;5031269;28;20025;-67
2023/05/30 09:45:38;;;;;;;14.23;13.52;;;;;;;;;;5022787;28;20073;-70
2023/05/30 09:48:04;;;;;;;12.77;12.18;;;;;;;;;;5025263;28;20033;-66
2023/05/30 09:50:29;;;;;;;15.13;14.32;;;;;;;;;;5026579;28;20037;-66
2023/05/30 09:52:56;;;;;;;12.27;11.68;;;;;;;;;;5029542;28;20396;-70
2023/05/30 09:55:23;;;;;;;14.18;13.48;;;;;;;;;;5022987;28;20018;-67
2023/05/30 09:57:49;;;;;;;14.05;13.35;;;;;;;;;;5023006;28;20021;-71
2023/05/30 10:00:29;;;;;;;14.40;13.70;;;;;;;;;;5026736;28;20083;-68
2023/05/30 10:02:56;;;;;;;14.13;13.43;;;;;;;;;;5018873;28;20025;-66
2023/05/30 10:05:22;;;;;;;14.45;13.75;;;;;;;;;;5028379;28;20048;-67
2023/05/30 10:07:48;;;;;;;14.45;13.75;;;;;;;;;;5026382;28;20040;-69
2023/05/30 10:10:14;;;;;;;14.57;13.88;;;;;;;;;;5033536;28;20025;-66
2023/05/30 10:12:42;;;;;;;12.80;12.20;;;;;;;;;;5029642;28;20742;-69
2023/05/30 10:15:07;;;;;;;13.65;12.95;;;;;;;;;;5026550;28;20028;-68
2023/05/30 10:17:34;;;;;;;13.02;12.43;;;;;;;;;;5033571;28;20018;-68
2023/05/30 10:20:02;;;;;;;12.60;12.00;;;;;;;;;;5029066;28;20033;-68
2023/05/30 10:22:30;;;;;;;12.38;11.77;;;;;;;;;;5031798;28;20033;-68
2023/05/30 10:24:55;;;;;;;12.63;12.02;;;;;;;;;;5031050;28;20028;-68
2023/05/30 10:27:41;;;;;;;12.50;11.90;;;;;;;;;;5031502;28;20436;-68
2023/05/30 10:30:07;;;;;;;13.15;12.55;;;;;;;;;;5021780;28;20088;-69
2023/05/30 10:32:35;;;;;;;13.00;12.40;;;;;;;;;;5029606;28;20477;-68
2023/05/30 10:35:11;;;;;;;14.23;13.52;;;;;;;;;;5027912;28;20033;-68
2023/05/30 10:37:37;;;;;;;14.25;13.48;;;;;;;;;;5026132;28;20031;-64
2023/05/30 10:40:21;;;;;;;13.75;13.05;;;;;;;;;;5030996;28;20034;-66
2023/05/30 10:42:49;;;;;;;13.80;13.10;;;;;;;;;;5026759;28;20112;-66
2023/05/30 10:45:20;;;;;;;13.15;12.55;;;;;;;;;;5026675;28;20026;-66
2023/05/30 10:47:53;;;;;;;13.65;12.95;;;;;;;;;;5025711;28;20053;-69
2023/05/30 10:50:24;;;;;;;13.63;12.93;;;;;;;;;;5027568;28;20038;-67
2023/05/30 10:52:55;;;;;;;13.95;13.25;;;;;;;;;;5029758;28;20059;-67
2023/05/30 10:55:21;;;;;;;13.88;13.18;;;;;;;;;;5020488;28;20108;-65
2023/05/30 10:57:46;;;;;;;13.70;13.00;;;;;;;;;;5025413;28;20112;-65
2023/05/30 11:00:17;;;;;;;14.07;13.38;;;;;;;;;;5017746;28;20068;-64
2023/05/30 11:02:48;;;;;;;13.32;12.73;;;;;;;;;;5023047;28;20118;-65
2023/05/30 11:05:17;;;;;;;14.05;13.35;;;;;;;;;;5028051;28;20040;-65
2023/05/30 11:07:43;;;;;;;12.95;12.35;;;;;;;;;;5017616;28;20483;-65
2023/05/30 11:10:11;;;;;;;13.90;13.20;;;;;;;;;;5022916;28;20109;-66
2023/05/30 11:12:59;;;;;;;12.93;12.32;;;;;;;;;;5022609;28;20120;-67
2023/05/30 11:15:34;;;;;;;13.75;13.05;;;;;;;;;;5024294;28;20818;-67
2023/05/30 11:17:59;;;;;;;12.85;12.25;;;;;;;;;;5026460;28;20064;-67
2023/05/30 11:20:26;;;;;;;12.77;12.18;;;;;;;;;;5030325;28;20647;-67
2023/05/30 11:23:01;;;;;;;12.98;12.38;;;;;;;;;;5026116;28;20033;-67
2023/05/30 11:25:27;;;;;;;13.02;12.43;;;;;;;;;;5025173;28;20025;-67
2023/05/30 11:28:19;;;;;;;13.10;12.50;;;;;;;;;;5022155;28;20017;-66
2023/05/30 11:30:48;;;;;;;12.93;12.32;;;;;;;;;;5024156;28;20037;-66
2023/05/30 11:33:16;;;;;;;12.82;12.23;;;;;;;;;;5025879;28;20377;-67
2023/05/30 11:35:48;;;;;;;13.43;12.75;;;;;;;;;;5024000;28;20037;-65
2023/05/30 11:38:20;;;;;;;12.80;12.20;;;;;;;;;;5021414;28;20052;-66
2023/05/30 11:40:46;;;;;;;12.68;12.07;;;;;;;;;;5026849;28;20038;-67
2023/05/30 11:43:13;;;;;;;13.27;12.68;;;;;;;;;;5025779;28;20029;-65
2023/05/30 11:45:39;;;;;;;13.07;12.48;;;;;;;;;;5023694;28;20436;-65
2023/05/30 11:48:11;;;;;;;12.77;12.18;;;;;;;;;;5020569;28;20060;-67
2023/05/30 11:50:40;;;;;;;12.95;12.35;;;;;;;;;;5021680;28;20485;-66
2023/05/30 11:53:12;;;;;;;13.02;12.43;;;;;;;;;;5020707;28;20037;-67
2023/05/30 11:55:37;;;;;;;12.85;12.25;;;;;;;;;;5018642;28;20030;-67
2023/05/30 11:58:03;;;;;;;12.75;12.15;;;;;;;;;;5022145;28;20012;-66
2023/05/30 12:00:28;;;;;;;13.00;12.40;;;;;;;;;;5022886;28;20080;-65
2023/05/30 12:02:54;;;;;;;13.15;12.55;;;;;;;;;;5023207;28;20384;-65
2023/05/30 12:05:19;;;;;;;13.00;12.40;;;;;;;;;;5027232;28;20156;-65
2023/05/30 12:07:48;;;;;;;13.02;12.43;;;;;;;;;;5020973;28;20477;-68
2023/05/30 12:10:13;;;;;;;14.02;13.32;;;;;;;;;;5023569;28;20125;-65
2023/05/30 12:12:39;;;;;;;12.90;12.30;;;;;;;;;;5026407;28;20568;-67
2023/05/30 12:15:04;;;;;;;13.88;13.18;;;;;;;;;;5024792;28;20471;-67
2023/05/30 12:17:30;;;;;;;12.85;12.25;;;;;;;;;;5029799;28;20029;-64
2023/05/30 12:19:59;;;;;;;13.45;12.77;;;;;;;;;;5022891;28;20033;-67
2023/05/30 12:22:27;;;;;;;13.23;12.63;;;;;;;;;;5028426;28;20585;-69
2023/05/30 12:24:52;;;;;;;14.18;13.48;;;;;;;;;;5029429;28;20033;-71
2023/05/30 12:27:25;;;;;;;14.20;13.50;;;;;;;;;;5024907;28;20509;-67
2023/05/30 12:29:50;;;;;;;13.43;12.75;;;;;;;;;;5023567;28;20023;-65
2023/05/30 12:32:26;;;;;;;13.13;12.52;;;;;;;;;;5023648;28;20017;-67
2023/05/30 12:34:53;;;;;;;12.55;11.95;;;;;;;;;;5019410;28;20026;-67
2023/05/30 12:37:19;;;;;;;12.80;12.20;;;;;;;;;;5028789;28;20029;-66
2023/05/30 12:39:56;;;;;;;12.07;11.48;;;;;;;;;;5032321;28;20051;-67
2023/05/30 12:42:25;;;;;;;13.45;12.82;;;;;;;;;;5031687;28;20029;-69
2023/05/30 12:44:58;;;;;;;12.60;12.00;;;;;;;;;;5024890;28;20159;-66
2023/05/30 12:47:23;;;;;;;13.20;12.60;;;;;;;;;;5020695;28;20021;-67
2023/05/30 12:49:49;;;;;;;12.93;12.32;;;;;;;;;;5022765;28;20419;-66
2023/05/30 12:52:15;;;;;;;12.93;12.32;;;;;;;;;;5026084;28;20030;-67
2023/05/30 12:54:41;;;;;;;12.85;12.25;;;;;;;;;;5027734;28;20033;-65
2023/05/30 12:57:07;;;;;;;13.18;12.57;;;;;;;;;;5033049;28;20885;-64
2023/05/30 12:59:32;;;;;;;12.73;12.13;;;;;;;;;;5032461;28;20152;-67
2023/05/30 13:01:58;;;;;;;12.32;11.73;;;;;;;;;;5026177;28;20117;-66
2023/05/30 13:04:23;;;;;;;13.55;12.85;;;;;;;;;;5020586;28;20079;-70
2023/05/30 13:06:49;;;;;;;13.32;12.65;;;;;;;;;;5028735;28;20069;-67
2023/05/30 13:09:15;;;;;;;14.75;13.95;;;;;;;;;;5026410;28;20099;-68
2023/05/30 13:11:40;;;;;;;13.25;12.65;;;;;;;;;;5024585;28;20060;-70
2023/05/30 13:14:06;;;;;;;13.85;13.15;;;;;;;;;;5030359;28;20048;-67
2023/05/30 13:16:32;;;;;;;13.35;12.73;;;;;;;;;;5025987;28;20484;-63
2023/05/30 13:18:57;;;;;;;13.85;13.15;;;;;;;;;;5033067;28;20116;-64
2023/05/30 13:21:23;;;;;;;13.82;13.13;;;;;;;;;;5020726;28;20063;-65
2023/05/30 13:23:48;;;;;;;12.98;12.38;;;;;;;;;;5024181;28;20036;-69
2023/05/30 13:26:13;;;;;;;13.38;12.75;;;;;;;;;;5026790;28;20516;-67
2023/05/30 13:28:39;;;;;;;13.00;12.40;;;;;;;;;;5021597;28;20028;-67
2023/05/30 13:31:05;;;;;;;13.55;12.88;;;;;;;;;;5022915;28;20036;-67
2023/05/30 13:33:31;;;;;;;13.85;13.15;;;;;;;;;;5030391;28;20025;-68
2023/05/30 13:35:57;;;;;;;13.00;12.40;;;;;;;;;;5030335;28;20519;-67
2023/05/30 13:38:22;;;;;;;12.80;12.20;;;;;;;;;;5032958;28;20119;-68
2023/05/30 13:40:47;;;;;;;13.27;12.68;;;;;;;;;;5021332;28;20029;-71
2023/05/30 13:43:13;;;;;;;12.75;12.15;;;;;;;;;;5024488;28;20057;-71
2023/05/30 13:45:39;;;;;;;11.80;11.30;;;;;;;;;;5027258;28;20017;-71
2023/05/30 13:48:05;;;;;;;12.80;12.20;;;;;;;;;;5029728;28;20763;-66
2023/05/30 13:50:31;;;;;;;13.73;13.02;;;;;;;;;;5025730;28;20026;-69
2023/05/30 13:52:56;;;;;;;13.25;12.65;;;;;;;;;;5026051;28;20489;-70
2023/05/30 13:55:21;;;;;;;12.93;12.32;;;;;;;;;;5035754;28;20033;-66
2023/05/30 13:57:48;;;;;;;13.83;13.13;;;;;;;;;;5025098;28;20025;-67
2023/05/30 14:00:14;;;;;;;13.93;13.23;;;;;;;;;;5034019;28;20324;-66
2023/05/30 14:02:39;;;;;;;13.65;12.95;;;;;;;;;;5027676;28;20021;-65
2023/05/30 14:05:05;;;;;;;12.98;12.38;;;;;;;;;;5029687;28;20024;-70
2023/05/30 14:07:30;;;;;;;12.98;12.38;;;;;;;;;;5027834;28;20022;-65
2023/05/30 14:09:56;;;;;;;13.35;12.68;;;;;;;;;;5027518;28;20033;-65
2023/05/30 14:12:21;;;;;;;13.20;12.57;;;;;;;;;;5032541;28;20021;-64
2023/05/30 14:14:46;;;;;;;13.48;12.82;;;;;;;;;;5026625;28;20294;-71